Bartlesville, OK (74006)

12:58 AM CDT del 01 novembre 2014 (GMT -0500)
East Drive | Change Station
CLOSE
Current Station
Stazione meteo personale
Location: Bartlesville, OK
Altitudine: 752 ft
Stazioni meteo nelle vicinanze
Avvisi attivi: Freeze Warning

Alt. 752 ft 36.73 °N, 95.91 °W | Updated 13 minutes ago

Sereno
Sereno
33.0 °F
Sembra 33 °F
N
0.0
Vento Variabile Vento da NNE

Oggi
Massima -- | Minima -- °F
--% Possibilità di precip.
Ieri
Massima -- | Minima -- °F
Precip. -- in
7:47 AM 6:26 PM
Gobba a ponente, 63% visible
Pressione 30.47 in
Visibilità 10.0 miglia
Nuvole Sereno
Raffreddamento del vento 33 °F
Punto di rugiada 23 °F
Umidità 68%
Piovosità 0.00 in
Spessore del manto nevoso Non disponibile.
Raggi UV 0 fuori da 12
Polline 4.00 fuori da 12
Qualità dell'aria Non disponibile.
Flu Activity Non disponibile.
METAR KBVO 010553Z AUTO 00000KT 10SM CLR M03/M05 A3046 RMK AO2 SLP316 T10281050 10044 21039 401221039 50002 $

More Conditions Fewer Conditions

Pressione 30.47 in
Visibilità 10.0 miglia
Nuvole Sereno
Raffreddamento del vento 33 °F
Punto di rugiada 23 °F
Umidità 68%
Piovosità 0.00 in
Spessore del manto nevoso Non disponibile.
Raggi UV 0 fuori da 12
Polline 4.00 fuori da 12
Qualità dell'aria Non disponibile.
Flu Activity Non disponibile.
METAR KBVO 010553Z AUTO 00000KT 10SM CLR M03/M05 A3046 RMK AO2 SLP316 T10281050 10044 21039 401221039 50002 $

More Conditions Fewer Conditions

10-Day Weather Forecast

Almanac

Astronomia

Nov. 01, 2014 Alba Tramonto
Ora attuale
Crepuscolo civile
Crepuscolo nautico
Crepuscolo astronomico
Luna
Estensione della luce visibile
Lunghezza del giorno
Tomorrow will be .
, % of the Moon is Illuminated

Gli estremi di oggi

State Highs State Lows

Community

WunderPhotos

Upload Photos

1,766,863 foto caricate!

WunderBlogs® & News

Nearby

Qualità dell'aria

  Qualità dell'aria Indice AQ Inquinante
Not available.

Profondità neve

Stazione Profondità Altitudine

Attività sismica

Città  Distanza Mag. Data & Ora
Minimo Magnitudo Mostrato è 2.5.

Temperature delle acque costiere

Località Temperatura

Stazioni meteo nelle vicinanze